Airfield :
LOGIN :

Register | Disclaimer

   EN    FR    IT 

 










Legend :    VFR   Marginal VFR   IFR   Intensive IFR   Very Intensive IFR
Visi :
Ceiling :
>= 8 km
>= 3000ft
5 to 8 km
1000 to 3000 ft
1500m to 5 km
500 to 1000 ft
800 to 1500m
200 to 500 ft
< 800m
< 200 ft
Symbols :   Thunderstorms  Fog  Heavy snow  Heavy precipitations  Wind > 20 kt
SIGMETs :     Misc.  Thunderstorms  Icing  Turbulence  Mountain Waves  Volcanic Ashes







- Airport Elevation : 788 ft
- IATA code : DCM
- Download approach charts


LFCK - Castres-Mazamet

CURRENT METAR :
  • 160630Z AUTO VRB03KT 8000 -TSRA FEW012/// BKN088/// OVC110/// ///CB 20/19 Q1015 TEMPO VRB15G30KT 4000 TSRA BKN012

EXPIRED METARs :
  • 160600Z AUTO 23003KT 9999 TS OVC012/// ///CB 20/19 Q1014 BECMG NSW BKN012
  • 160530Z AUTO VRB02KT 9999 BKN012/// BKN017/// BKN029/// ///CB 20/19 Q1014 BECMG BKN012
  • 160500Z AUTO VRB01KT 9999 OVC010/// ///TCU 20/19 Q1014
  • 160430Z AUTO 32003KT 9999 OVC011 20/19 Q1014
  • 160400Z AUTO 31004KT 9999 BKN016/// BKN021/// OVC230/// ///CB 20/18 Q1014

TAF AMD TAF LFCK
Valid from the 16 at 06:00 until the 16 at 15:00 UTC


160628Z 1606/1615 VRB02KT 9999 BKN012
TEMPO 1606/1615 VRB15G30KT 4000 TSRA BKN008 SCT030CB
No reported NOTAMs for that airfield.
1 SIGMET reported for the Bordeaux FIR (LFBB) :
 
Embedded thunderstorms
LFBB SIGMET 5 VALID 160515/160700 LFPW
LFBB BORDEAUX FIR/UIR EMBD TS OBS WI N4715 E00000 - N4715 E00200 - N4630 E00300 - N4215 E00230 - N4300 W00145 - N4430 W00145 - N4500 W00030 - N4715 E00000 TOP FL380 STNR NC=



MET'MAP, your aeronautical weather chart ! - Copyright ORBIFLY December 2007 - Disclaimer

ORBIFLY MET'MAP TEAM :

Programming & Development : Alexandra Zaïnal
Concept & Development : Baudouin d'Aumeries
Co-Development & Prog : Marc-Olivier Méhu
Technical & hardware support : Manuel Goepfert

Contact : metmap@orbifly.com




SOURCES & CREDITS :

   NOAA